Etusivu
METAR-TAF:

METAR-TAF

Lentoasemat :

Diepholz, Saksa

Leveyspiiri: 52-35N, Pituuspiiri: 008-21E, korkeus merenpinnasta: 39 m

Tämänhetkinen sää

Tämä raportti tehtiin 23 minuuttia sitten, kello 10.20 UTC
Tuuli 4 kn idästä
Lämpötila 15°C
Kosteus 55%
Ilmanpaine 1033 hPa
Näkyvyys 10 km tai enemmän
Muutamia pilviä 3000 ft:n korkeudessa

METAR: ETND 071020Z 09004KT 9999 FEW030 15/06 Q1033 BLU+

Aika: 12:43 (10:43 UTC)

Sääennuste

Tämä raportti tehtiin 33 minuuttia sitten, kello 10.10 UTC
Ennuste voimassa 07. päivästä klo 11 UTC - 07. päivään klo 20 UTC
Tuuli 8 kn idästä/koillisesta
Näkyvyys 10 km tai enemmän
Muutamia pilviä 3000 ft:n korkeudessa
Hajanaisia pilviä 35000 ft:n korkeudessa

TAF: ETND 071010Z 0711/0720 06008KT 9999 NSW FEW030 SCT350 BY ETGL

Säähavainnot ja -ennusteet yli 4000 lentoasemalta (METAR- ja TAF-raportit).

Käytössä olevat sääasemat on merkitty karttaan keltaisilla ja punaisilla pisteillä.

Aseta hiiri pisteen päälle nähdäksesi sääaseman nimen.

Klikkaa sitten nähdäksesi säähavainnot ja -ennusteet.

Kartan vaihtaminen: klikkaa mustalla rastilla varustettuja vihreitä pisteitä, niin voit zoomata sisään; viivalla varustettua vihreää pistettä, niin voit zoomata ulos tai vihreitä nuolia, niin pääset viereisille kartoille.


METAR-TAF: